Hotevilla, AZ

3:40 PM MST on September 20, 2014 (GMT -0700)
Winslow-Lindbergh Regional | Change Station
CLOSE
Current Station
Airport
Location: Winslow,
Elevation: 4882 ft
Nearby Weather Stations

Elev 4882 ft 35.03 °N, 110.72 °W | Updated 44 minutes ago

Overcast
Overcast
93 °F
Feels Like 93 °F
N
10
Wind Variable Wind from NE

Today
High -- | Low -- °F
--% Chance of Precip.
Yesterday
High -- | Low -- °F
Precip. -- in
6:09 AM 6:22 PM
Waning Crescent, 10% visible
Pressure 29.79 in
Visibility 10.0 miles
Clouds Clear
Dew Point 43 °F
Humidity 18%
Rainfall 0.00 in
Snow Depth Not available.
UV 5 out of 12
Pollen 5.50 out of 12
Air Quality Not available.
Flu Activity Not available.
METAR KINW 202156Z AUTO 05009KT 10SM CLR 34/06 A3002 RMK AO2 LTG DSNT SW SLP087 T03390061

More Conditions Fewer Conditions

Pressure 29.79 in
Visibility 10.0 miles
Clouds Clear
Dew Point 43 °F
Humidity 18%
Rainfall 0.00 in
Snow Depth Not available.
UV 5 out of 12
Pollen 5.50 out of 12
Air Quality Not available.
Flu Activity Not available.
METAR KINW 202156Z AUTO 05009KT 10SM CLR 34/06 A3002 RMK AO2 LTG DSNT SW SLP087 T03390061

More Conditions Fewer Conditions

10-Day Weather Forecast

Almanac

Astronomy

Sep. 20, 2014 Rise Set
Actual Time 6:09 AM MST 6:22 PM MST
Civil Twilight 5:43 AM MST 6:47 PM MST
Nautical Twilight 5:13 AM MST 7:17 PM MST
Astronomical Twilight 4:43 AM MST 7:48 PM MST
Moon 2:56 AM MST 4:23 PM MST
Length of Visible Light 13h 04m
Length of Day
12h 13m
Tomorrow will be 2m 15s shorter.
Waning Crescent, 10% of the Moon is Illuminated
Today
Waning Crescent
Sep 24
New
Oct 1
First Quarter
Oct 8
Full
Oct 15
Last Quarter

Today's Extremes

State Highs State Lows

Community

WunderPhotos

Upload Photos

1,754,967 photos uploaded!

WunderBlogs® & News

Nearby

Snow Depth

Station Depth Elevation
Workman Creek 1 in 6900 ft

Earthquake Activity

City Distance Mag. Time & Date
No recent earthquake activity has been reported nearby.
Minimum magnitude displayed is 2.5.

Coastal Water Temperatures

Place Temperature
No Stations Reporting

Nearby Weather Stations